Sweetwater, Colorado
Current Conditions -  °F | °C
As of 12:55 PM on Sunday 23 Nov 2014 (Local Time) from KEGE Reporting Station
Rain Showers Rain Showers  
Wind Chill: 25°   Ceiling: 6000
Heat Index: 34°   Visibility: 7mi
Dew Point: 21°   Wind: 12mph
Humidity: 60%   Direction: 240°WSW
Pressure: 29.91"   Gusts: 21mph
Location:  39.6878°N, 106.972°W
Report Text: KEGE 231955Z 24010G18KT 7SM VCSH FEW020 SCT045 OVC060 01/M06 A2991
Loading
Personal Weather Stations






























Interactive Weather Map New forecast layout! Learn more

10-Day Weather Forecast

Advertisements
Track Severe Weather on mobile